sensor_id;sensor_type;location;lat;lon;timestamp;temperature;humidity
25923;DHT22;13725;51.170;4.442;2023-01-16T00:01:25;4.60;99.90
25923;DHT22;13725;51.170;4.442;2023-01-16T00:03:51;4.40;99.90
25923;DHT22;13725;51.170;4.442;2023-01-16T00:06:17;4.50;99.90
25923;DHT22;13725;51.170;4.442;2023-01-16T00:08:43;4.40;99.90
25923;DHT22;13725;51.170;4.442;2023-01-16T00:11:10;4.40;99.90
25923;DHT22;13725;51.170;4.442;2023-01-16T00:13:37;4.30;99.90
25923;DHT22;13725;51.170;4.442;2023-01-16T00:16:03;4.30;99.90
25923;DHT22;13725;51.170;4.442;2023-01-16T00:18:29;4.40;99.90
25923;DHT22;13725;51.170;4.442;2023-01-16T00:20:55;4.30;99.90
25923;DHT22;13725;51.170;4.442;2023-01-16T00:23:21;4.20;99.90
25923;DHT22;13725;51.170;4.442;2023-01-16T00:25:46;4.20;99.90
25923;DHT22;13725;51.170;4.442;2023-01-16T00:28:13;4.20;99.90
25923;DHT22;13725;51.170;4.442;2023-01-16T00:30:39;4.20;99.90
25923;DHT22;13725;51.170;4.442;2023-01-16T00:33:06;4.20;99.90
25923;DHT22;13725;51.170;4.442;2023-01-16T00:35:32;4.20;99.90
25923;DHT22;13725;51.170;4.442;2023-01-16T00:37:58;4.20;99.90
25923;DHT22;13725;51.170;4.442;2023-01-16T00:40:24;4.30;99.90
25923;DHT22;13725;51.170;4.442;2023-01-16T00:42:49;4.20;99.90
25923;DHT22;13725;51.170;4.442;2023-01-16T00:45:15;4.10;99.90
25923;DHT22;13725;51.170;4.442;2023-01-16T00:47:41;4.10;99.90
25923;DHT22;13725;51.170;4.442;2023-01-16T00:50:07;4.10;99.90
25923;DHT22;13725;51.170;4.442;2023-01-16T00:52:33;4.20;99.90
25923;DHT22;13725;51.170;4.442;2023-01-16T00:54:59;4.10;99.90
25923;DHT22;13725;51.170;4.442;2023-01-16T00:57:24;4.10;99.90
25923;DHT22;13725;51.170;4.442;2023-01-16T00:59:50;4.10;99.90
25923;DHT22;13725;51.170;4.442;2023-01-16T01:02:16;4.10;99.90
25923;DHT22;13725;51.170;4.442;2023-01-16T01:04:41;4.10;99.90
25923;DHT22;13725;51.170;4.442;2023-01-16T01:07:07;4.10;99.90
25923;DHT22;13725;51.170;4.442;2023-01-16T01:09:33;4.10;99.90
25923;DHT22;13725;51.170;4.442;2023-01-16T01:11:59;4.10;99.90
25923;DHT22;13725;51.170;4.442;2023-01-16T01:14:25;4.10;99.90
25923;DHT22;13725;51.170;4.442;2023-01-16T01:16:51;4.30;99.90
25923;DHT22;13725;51.170;4.442;2023-01-16T01:19:17;4.10;99.90
25923;DHT22;13725;51.170;4.442;2023-01-16T01:21:43;4.30;99.90
25923;DHT22;13725;51.170;4.442;2023-01-16T01:24:09;4.10;99.90
25923;DHT22;13725;51.170;4.442;2023-01-16T01:26:35;4.10;99.90
25923;DHT22;13725;51.170;4.442;2023-01-16T01:29:01;4.10;99.90
25923;DHT22;13725;51.170;4.442;2023-01-16T01:31:27;4.10;99.90
25923;DHT22;13725;51.170;4.442;2023-01-16T01:33:52;4.20;99.90
25923;DHT22;13725;51.170;4.442;2023-01-16T01:36:18;4.20;99.90
25923;DHT22;13725;51.170;4.442;2023-01-16T01:38:44;4.20;99.90
25923;DHT22;13725;51.170;4.442;2023-01-16T01:41:15;4.10;99.90
25923;DHT22;13725;51.170;4.442;2023-01-16T01:43:46;4.10;99.90
25923;DHT22;13725;51.170;4.442;2023-01-16T01:46:25;4.20;99.90
25923;DHT22;13725;51.170;4.442;2023-01-16T01:49:02;4.10;99.90
25923;DHT22;13725;51.170;4.442;2023-01-16T01:51:36;4.10;99.90
25923;DHT22;13725;51.170;4.442;2023-01-16T01:54:09;4.20;99.90
25923;DHT22;13725;51.170;4.442;2023-01-16T01:56:41;4.20;99.90
25923;DHT22;13725;51.170;4.442;2023-01-16T01:59:13;4.20;99.90
25923;DHT22;13725;51.170;4.442;2023-01-16T02:01:40;4.20;99.90
25923;DHT22;13725;51.170;4.442;2023-01-16T02:04:10;4.20;99.90
25923;DHT22;13725;51.170;4.442;2023-01-16T02:06:46;4.20;99.90
25923;DHT22;13725;51.170;4.442;2023-01-16T02:09:13;4.30;99.90
25923;DHT22;13725;51.170;4.442;2023-01-16T02:11:46;4.20;99.90
25923;DHT22;13725;51.170;4.442;2023-01-16T02:14:16;4.20;99.90
25923;DHT22;13725;51.170;4.442;2023-01-16T02:16:42;4.20;99.90
25923;DHT22;13725;51.170;4.442;2023-01-16T02:19:42;4.30;99.90
25923;DHT22;13725;51.170;4.442;2023-01-16T02:22:35;4.30;99.90
25923;DHT22;13725;51.170;4.442;2023-01-16T02:39:27;4.30;99.90
25923;DHT22;13725;51.170;4.442;2023-01-16T02:44:59;4.40;99.90
25923;DHT22;13725;51.170;4.442;2023-01-16T02:47:39;4.40;99.90
25923;DHT22;13725;51.170;4.442;2023-01-16T02:50:30;4.40;99.90
25923;DHT22;13725;51.170;4.442;2023-01-16T02:55:57;4.50;99.90
25923;DHT22;13725;51.170;4.442;2023-01-16T02:58:29;4.40;99.90
25923;DHT22;13725;51.170;4.442;2023-01-16T03:00:58;4.40;99.90
25923;DHT22;13725;51.170;4.442;2023-01-16T03:03:47;4.50;99.90
25923;DHT22;13725;51.170;4.442;2023-01-16T03:09:15;4.50;99.90
25923;DHT22;13725;51.170;4.442;2023-01-16T03:15:22;4.60;99.90
25923;DHT22;13725;51.170;4.442;2023-01-16T03:23:05;4.70;99.90
25923;DHT22;13725;51.170;4.442;2023-01-16T03:25:56;4.70;99.90
25923;DHT22;13725;51.170;4.442;2023-01-16T03:36:57;4.80;99.90
25923;DHT22;13725;51.170;4.442;2023-01-16T03:39:28;4.90;99.90
25923;DHT22;13725;51.170;4.442;2023-01-16T03:42:03;4.90;99.90
25923;DHT22;13725;51.170;4.442;2023-01-16T03:44:45;5.00;99.90
25923;DHT22;13725;51.170;4.442;2023-01-16T03:47:29;5.00;99.90
25923;DHT22;13725;51.170;4.442;2023-01-16T03:49:59;5.00;99.90
25923;DHT22;13725;51.170;4.442;2023-01-16T03:52:34;5.00;99.90
25923;DHT22;13725;51.170;4.442;2023-01-16T03:55:25;5.10;99.90
25923;DHT22;13725;51.170;4.442;2023-01-16T03:58:00;5.10;99.90
25923;DHT22;13725;51.170;4.442;2023-01-16T04:00:35;5.10;99.90
25923;DHT22;13725;51.170;4.442;2023-01-16T04:03:12;5.10;99.90
25923;DHT22;13725;51.170;4.442;2023-01-16T04:08:27;5.10;99.90
25923;DHT22;13725;51.170;4.442;2023-01-16T04:10:57;5.10;99.90
25923;DHT22;13725;51.170;4.442;2023-01-16T04:13:27;5.20;99.90
25923;DHT22;13725;51.170;4.442;2023-01-16T04:15:56;5.20;99.90
25923;DHT22;13725;51.170;4.442;2023-01-16T04:18:29;5.20;99.90
25923;DHT22;13725;51.170;4.442;2023-01-16T04:20:56;5.30;99.90
25923;DHT22;13725;51.170;4.442;2023-01-16T04:23:22;5.30;99.90
25923;DHT22;13725;51.170;4.442;2023-01-16T04:25:48;5.30;99.90
25923;DHT22;13725;51.170;4.442;2023-01-16T04:28:13;5.50;99.90
25923;DHT22;13725;51.170;4.442;2023-01-16T04:30:39;5.30;99.90
25923;DHT22;13725;51.170;4.442;2023-01-16T04:33:05;5.30;99.90
25923;DHT22;13725;51.170;4.442;2023-01-16T04:35:31;5.40;99.90
25923;DHT22;13725;51.170;4.442;2023-01-16T04:37:57;5.40;99.90
25923;DHT22;13725;51.170;4.442;2023-01-16T04:40:23;5.30;99.90
25923;DHT22;13725;51.170;4.442;2023-01-16T04:42:49;5.30;99.90
25923;DHT22;13725;51.170;4.442;2023-01-16T04:45:14;5.30;99.90
25923;DHT22;13725;51.170;4.442;2023-01-16T04:47:47;5.30;99.90
25923;DHT22;13725;51.170;4.442;2023-01-16T04:50:13;5.30;99.90
25923;DHT22;13725;51.170;4.442;2023-01-16T04:52:40;5.30;99.90
25923;DHT22;13725;51.170;4.442;2023-01-16T04:55:07;5.30;99.90
25923;DHT22;13725;51.170;4.442;2023-01-16T04:57:33;5.30;99.90
25923;DHT22;13725;51.170;4.442;2023-01-16T04:59:58;5.30;99.90
25923;DHT22;13725;51.170;4.442;2023-01-16T05:02:24;5.30;99.90
25923;DHT22;13725;51.170;4.442;2023-01-16T05:04:50;5.30;99.90
25923;DHT22;13725;51.170;4.442;2023-01-16T05:07:15;5.30;99.90
25923;DHT22;13725;51.170;4.442;2023-01-16T05:09:41;5.40;99.90
25923;DHT22;13725;51.170;4.442;2023-01-16T05:12:07;5.30;99.90
25923;DHT22;13725;51.170;4.442;2023-01-16T05:14:33;5.30;99.90
25923;DHT22;13725;51.170;4.442;2023-01-16T05:16:58;5.30;99.90
25923;DHT22;13725;51.170;4.442;2023-01-16T05:19:24;5.20;99.90
25923;DHT22;13725;51.170;4.442;2023-01-16T05:21:50;5.20;99.90
25923;DHT22;13725;51.170;4.442;2023-01-16T05:24:15;5.30;99.90
25923;DHT22;13725;51.170;4.442;2023-01-16T05:26:41;5.30;99.90
25923;DHT22;13725;51.170;4.442;2023-01-16T05:29:07;5.20;99.90
25923;DHT22;13725;51.170;4.442;2023-01-16T05:31:33;5.30;99.90
25923;DHT22;13725;51.170;4.442;2023-01-16T05:33:59;5.30;99.90
25923;DHT22;13725;51.170;4.442;2023-01-16T05:36:24;5.20;99.90
25923;DHT22;13725;51.170;4.442;2023-01-16T05:38:50;5.20;99.90
25923;DHT22;13725;51.170;4.442;2023-01-16T05:41:16;5.20;99.90
25923;DHT22;13725;51.170;4.442;2023-01-16T05:43:42;5.20;99.90
25923;DHT22;13725;51.170;4.442;2023-01-16T05:46:08;5.10;99.90
25923;DHT22;13725;51.170;4.442;2023-01-16T05:48:33;5.10;99.90
25923;DHT22;13725;51.170;4.442;2023-01-16T05:51:02;5.10;99.90
25923;DHT22;13725;51.170;4.442;2023-01-16T05:53:28;5.20;99.90
25923;DHT22;13725;51.170;4.442;2023-01-16T05:55:56;5.20;99.90
25923;DHT22;13725;51.170;4.442;2023-01-16T05:58:22;5.20;99.90
25923;DHT22;13725;51.170;4.442;2023-01-16T06:00:48;5.10;99.90
25923;DHT22;13725;51.170;4.442;2023-01-16T06:03:14;5.10;99.90
25923;DHT22;13725;51.170;4.442;2023-01-16T06:05:43;5.10;99.90
25923;DHT22;13725;51.170;4.442;2023-01-16T06:08:09;5.10;99.90
25923;DHT22;13725;51.170;4.442;2023-01-16T06:10:35;5.10;99.90
25923;DHT22;13725;51.170;4.442;2023-01-16T06:13:02;5.20;99.90
25923;DHT22;13725;51.170;4.442;2023-01-16T06:15:28;5.20;99.90
25923;DHT22;13725;51.170;4.442;2023-01-16T06:17:53;5.30;99.90
25923;DHT22;13725;51.170;4.442;2023-01-16T06:20:21;5.20;99.90
25923;DHT22;13725;51.170;4.442;2023-01-16T06:22:47;5.20;99.90
25923;DHT22;13725;51.170;4.442;2023-01-16T06:25:12;5.30;99.90
25923;DHT22;13725;51.170;4.442;2023-01-16T06:27:38;5.30;99.90
25923;DHT22;13725;51.170;4.442;2023-01-16T06:30:05;5.30;99.90
25923;DHT22;13725;51.170;4.442;2023-01-16T06:32:31;5.20;99.90
25923;DHT22;13725;51.170;4.442;2023-01-16T06:34:57;5.10;99.90
25923;DHT22;13725;51.170;4.442;2023-01-16T06:37:22;5.10;99.90
25923;DHT22;13725;51.170;4.442;2023-01-16T06:39:48;5.10;99.90
25923;DHT22;13725;51.170;4.442;2023-01-16T06:42:14;5.10;99.90
25923;DHT22;13725;51.170;4.442;2023-01-16T06:44:39;5.20;99.90
25923;DHT22;13725;51.170;4.442;2023-01-16T06:47:05;5.20;99.90
25923;DHT22;13725;51.170;4.442;2023-01-16T06:49:32;5.20;99.90
25923;DHT22;13725;51.170;4.442;2023-01-16T06:51:58;5.10;99.90
25923;DHT22;13725;51.170;4.442;2023-01-16T06:54:25;5.10;99.90
25923;DHT22;13725;51.170;4.442;2023-01-16T06:56:51;5.10;99.90
25923;DHT22;13725;51.170;4.442;2023-01-16T06:59:17;5.10;99.90
25923;DHT22;13725;51.170;4.442;2023-01-16T07:01:43;5.10;99.90
25923;DHT22;13725;51.170;4.442;2023-01-16T07:04:08;5.20;99.90
25923;DHT22;13725;51.170;4.442;2023-01-16T07:06:35;5.10;99.90
25923;DHT22;13725;51.170;4.442;2023-01-16T07:09:02;5.10;99.90
25923;DHT22;13725;51.170;4.442;2023-01-16T07:11:28;5.10;99.90
25923;DHT22;13725;51.170;4.442;2023-01-16T07:13:54;5.10;99.90
25923;DHT22;13725;51.170;4.442;2023-01-16T07:16:40;5.10;99.90
25923;DHT22;13725;51.170;4.442;2023-01-16T07:19:24;5.10;99.90
25923;DHT22;13725;51.170;4.442;2023-01-16T07:22:12;5.10;99.90
25923;DHT22;13725;51.170;4.442;2023-01-16T07:24:57;5.00;99.90
25923;DHT22;13725;51.170;4.442;2023-01-16T07:27:23;5.00;99.90
25923;DHT22;13725;51.170;4.442;2023-01-16T07:29:49;5.10;99.90
25923;DHT22;13725;51.170;4.442;2023-01-16T07:32:16;5.10;99.90
25923;DHT22;13725;51.170;4.442;2023-01-16T07:34:41;5.00;99.90
25923;DHT22;13725;51.170;4.442;2023-01-16T07:37:07;5.00;99.90
25923;DHT22;13725;51.170;4.442;2023-01-16T07:39:36;5.00;99.90
25923;DHT22;13725;51.170;4.442;2023-01-16T07:42:06;5.00;99.90
25923;DHT22;13725;51.170;4.442;2023-01-16T07:44:32;5.10;99.90
25923;DHT22;13725;51.170;4.442;2023-01-16T07:46:57;5.10;99.90
25923;DHT22;13725;51.170;4.442;2023-01-16T07:49:23;5.00;99.90
25923;DHT22;13725;51.170;4.442;2023-01-16T07:51:49;5.00;99.90
25923;DHT22;13725;51.170;4.442;2023-01-16T07:54:15;4.90;99.90
25923;DHT22;13725;51.170;4.442;2023-01-16T07:56:41;4.90;99.90
25923;DHT22;13725;51.170;4.442;2023-01-16T07:59:06;5.00;99.90
25923;DHT22;13725;51.170;4.442;2023-01-16T08:01:32;4.90;99.90
25923;DHT22;13725;51.170;4.442;2023-01-16T08:03:58;5.00;99.90
25923;DHT22;13725;51.170;4.442;2023-01-16T08:06:24;4.90;99.90
25923;DHT22;13725;51.170;4.442;2023-01-16T08:08:50;4.90;99.90
25923;DHT22;13725;51.170;4.442;2023-01-16T08:11:15;4.90;99.90
25923;DHT22;13725;51.170;4.442;2023-01-16T08:14:00;4.90;99.90
25923;DHT22;13725;51.170;4.442;2023-01-16T08:16:26;4.90;99.90
25923;DHT22;13725;51.170;4.442;2023-01-16T08:18:52;4.90;99.90
25923;DHT22;13725;51.170;4.442;2023-01-16T08:21:18;4.90;99.90
25923;DHT22;13725;51.170;4.442;2023-01-16T08:23:43;4.90;99.90
25923;DHT22;13725;51.170;4.442;2023-01-16T08:26:10;4.90;99.90
25923;DHT22;13725;51.170;4.442;2023-01-16T08:28:35;4.90;99.90
25923;DHT22;13725;51.170;4.442;2023-01-16T08:31:10;4.90;99.90
25923;DHT22;13725;51.170;4.442;2023-01-16T08:33:39;4.90;99.90
25923;DHT22;13725;51.170;4.442;2023-01-16T08:36:06;4.90;99.90
25923;DHT22;13725;51.170;4.442;2023-01-16T08:38:32;4.90;99.90
25923;DHT22;13725;51.170;4.442;2023-01-16T08:40:58;4.90;99.90
25923;DHT22;13725;51.170;4.442;2023-01-16T08:43:24;4.90;99.90
25923;DHT22;13725;51.170;4.442;2023-01-16T08:46:19;4.90;99.90
25923;DHT22;13725;51.170;4.442;2023-01-16T08:49:05;4.90;99.90
25923;DHT22;13725;51.170;4.442;2023-01-16T08:51:53;4.90;99.90
25923;DHT22;13725;51.170;4.442;2023-01-16T08:54:18;4.90;99.90
25923;DHT22;13725;51.170;4.442;2023-01-16T08:56:44;5.00;99.90
25923;DHT22;13725;51.170;4.442;2023-01-16T08:59:10;5.10;99.90
25923;DHT22;13725;51.170;4.442;2023-01-16T09:01:37;5.10;99.90
25923;DHT22;13725;51.170;4.442;2023-01-16T09:04:04;5.10;99.90
25923;DHT22;13725;51.170;4.442;2023-01-16T09:06:30;5.20;99.90
25923;DHT22;13725;51.170;4.442;2023-01-16T09:08:57;5.30;99.90
25923;DHT22;13725;51.170;4.442;2023-01-16T09:11:22;5.30;99.90
25923;DHT22;13725;51.170;4.442;2023-01-16T09:14:06;5.50;99.90
25923;DHT22;13725;51.170;4.442;2023-01-16T09:16:32;5.50;99.90
25923;DHT22;13725;51.170;4.442;2023-01-16T09:18:58;5.50;99.90
25923;DHT22;13725;51.170;4.442;2023-01-16T09:21:24;5.40;99.90
25923;DHT22;13725;51.170;4.442;2023-01-16T09:23:50;5.40;99.90
25923;DHT22;13725;51.170;4.442;2023-01-16T09:26:17;5.50;99.90
25923;DHT22;13725;51.170;4.442;2023-01-16T09:28:43;5.50;99.90
25923;DHT22;13725;51.170;4.442;2023-01-16T09:31:09;5.50;99.90
25923;DHT22;13725;51.170;4.442;2023-01-16T09:33:35;5.50;99.90
25923;DHT22;13725;51.170;4.442;2023-01-16T09:36:03;5.50;99.90
25923;DHT22;13725;51.170;4.442;2023-01-16T09:38:28;5.50;99.90
25923;DHT22;13725;51.170;4.442;2023-01-16T09:40:57;5.50;99.90
25923;DHT22;13725;51.170;4.442;2023-01-16T09:46:11;5.50;99.90
25923;DHT22;13725;51.170;4.442;2023-01-16T09:51:24;5.60;99.90
25923;DHT22;13725;51.170;4.442;2023-01-16T09:54:00;5.70;99.90
25923;DHT22;13725;51.170;4.442;2023-01-16T09:56:53;5.70;99.90
25923;DHT22;13725;51.170;4.442;2023-01-16T09:59:43;5.50;99.90
25923;DHT22;13725;51.170;4.442;2023-01-16T10:02:27;5.50;99.90
25923;DHT22;13725;51.170;4.442;2023-01-16T10:04:55;5.40;99.90
25923;DHT22;13725;51.170;4.442;2023-01-16T10:18:30;5.60;99.90
25923;DHT22;13725;51.170;4.442;2023-01-16T10:24:10;5.60;99.90
25923;DHT22;13725;51.170;4.442;2023-01-16T10:27:00;5.60;99.90
25923;DHT22;13725;51.170;4.442;2023-01-16T10:29:39;5.70;99.90
25923;DHT22;13725;51.170;4.442;2023-01-16T10:32:21;5.70;99.90
25923;DHT22;13725;51.170;4.442;2023-01-16T10:35:03;5.70;99.90
25923;DHT22;13725;51.170;4.442;2023-01-16T10:37:32;5.70;99.90
25923;DHT22;13725;51.170;4.442;2023-01-16T10:40:04;5.60;99.90
25923;DHT22;13725;51.170;4.442;2023-01-16T10:42:33;5.80;99.90
25923;DHT22;13725;51.170;4.442;2023-01-16T10:45:28;5.90;99.90
25923;DHT22;13725;51.170;4.442;2023-01-16T10:48:15;6.00;99.90
25923;DHT22;13725;51.170;4.442;2023-01-16T10:51:01;6.20;99.90
25923;DHT22;13725;51.170;4.442;2023-01-16T10:53:28;6.20;99.90
25923;DHT22;13725;51.170;4.442;2023-01-16T10:55:56;6.30;99.90
25923;DHT22;13725;51.170;4.442;2023-01-16T10:58:31;6.30;99.90
25923;DHT22;13725;51.170;4.442;2023-01-16T11:01:17;6.40;99.90
25923;DHT22;13725;51.170;4.442;2023-01-16T11:03:49;6.60;99.90
25923;DHT22;13725;51.170;4.442;2023-01-16T11:08:51;6.80;99.90
25923;DHT22;13725;51.170;4.442;2023-01-16T11:11:18;6.90;99.90
25923;DHT22;13725;51.170;4.442;2023-01-16T11:14:29;7.00;99.90
25923;DHT22;13725;51.170;4.442;2023-01-16T11:20:03;7.00;99.90
25923;DHT22;13725;51.170;4.442;2023-01-16T11:22:29;7.00;99.90
25923;DHT22;13725;51.170;4.442;2023-01-16T11:24:58;7.00;99.90
25923;DHT22;13725;51.170;4.442;2023-01-16T11:27:30;6.90;99.90
25923;DHT22;13725;51.170;4.442;2023-01-16T11:29:57;6.90;99.90
25923;DHT22;13725;51.170;4.442;2023-01-16T11:32:24;6.60;99.90
25923;DHT22;13725;51.170;4.442;2023-01-16T11:34:54;6.60;99.90
25923;DHT22;13725;51.170;4.442;2023-01-16T11:37:21;6.50;99.90
25923;DHT22;13725;51.170;4.442;2023-01-16T11:39:52;6.50;99.90
25923;DHT22;13725;51.170;4.442;2023-01-16T11:42:18;6.60;99.90
25923;DHT22;13725;51.170;4.442;2023-01-16T11:45:19;6.50;99.90
25923;DHT22;13725;51.170;4.442;2023-01-16T11:48:08;6.40;99.90
25923;DHT22;13725;51.170;4.442;2023-01-16T11:50:57;6.30;99.90
25923;DHT22;13725;51.170;4.442;2023-01-16T11:53:29;6.40;99.90
25923;DHT22;13725;51.170;4.442;2023-01-16T11:56:17;6.40;99.90
25923;DHT22;13725;51.170;4.442;2023-01-16T12:13:17;6.60;99.90
25923;DHT22;13725;51.170;4.442;2023-01-16T12:16:13;6.70;99.90
25923;DHT22;13725;51.170;4.442;2023-01-16T12:19:05;6.70;99.90
25923;DHT22;13725;51.170;4.442;2023-01-16T12:21:43;6.70;99.90
25923;DHT22;13725;51.170;4.442;2023-01-16T12:26:43;7.00;99.90
25923;DHT22;13725;51.170;4.442;2023-01-16T12:48:29;7.10;99.90
25923;DHT22;13725;51.170;4.442;2023-01-16T12:56:38;7.20;99.90
25923;DHT22;13725;51.170;4.442;2023-01-16T12:59:21;7.00;99.90
25923;DHT22;13725;51.170;4.442;2023-01-16T13:01:52;7.00;99.90
25923;DHT22;13725;51.170;4.442;2023-01-16T13:04:39;7.00;99.90
25923;DHT22;13725;51.170;4.442;2023-01-16T13:07:13;6.90;99.90
25923;DHT22;13725;51.170;4.442;2023-01-16T13:12:28;7.00;99.90
25923;DHT22;13725;51.170;4.442;2023-01-16T13:15:24;6.90;99.90
25923;DHT22;13725;51.170;4.442;2023-01-16T13:20:38;6.90;99.90
25923;DHT22;13725;51.170;4.442;2023-01-16T13:23:17;6.90;99.90
25923;DHT22;13725;51.170;4.442;2023-01-16T13:25:47;7.00;99.90
25923;DHT22;13725;51.170;4.442;2023-01-16T13:31:07;7.10;99.90
25923;DHT22;13725;51.170;4.442;2023-01-16T13:33:41;7.20;99.90
25923;DHT22;13725;51.170;4.442;2023-01-16T13:36:36;7.00;99.90
25923;DHT22;13725;51.170;4.442;2023-01-16T13:41:52;7.10;99.90
25923;DHT22;13725;51.170;4.442;2023-01-16T13:44:30;7.10;99.90
25923;DHT22;13725;51.170;4.442;2023-01-16T13:47:21;7.20;99.90
25923;DHT22;13725;51.170;4.442;2023-01-16T13:49:52;7.20;99.90
25923;DHT22;13725;51.170;4.442;2023-01-16T13:52:21;7.10;99.90
25923;DHT22;13725;51.170;4.442;2023-01-16T13:54:54;7.10;99.90
25923;DHT22;13725;51.170;4.442;2023-01-16T13:57:21;7.10;99.90
25923;DHT22;13725;51.170;4.442;2023-01-16T13:59:50;7.00;99.90
25923;DHT22;13725;51.170;4.442;2023-01-16T14:13:36;7.00;99.90
25923;DHT22;13725;51.170;4.442;2023-01-16T14:19:00;7.10;99.90
25923;DHT22;13725;51.170;4.442;2023-01-16T14:24:16;6.90;99.90
25923;DHT22;13725;51.170;4.442;2023-01-16T14:26:45;7.00;99.90
25923;DHT22;13725;51.170;4.442;2023-01-16T14:29:26;7.00;99.90
25923;DHT22;13725;51.170;4.442;2023-01-16T14:34:36;7.00;99.90
25923;DHT22;13725;51.170;4.442;2023-01-16T14:37:13;6.90;99.90
25923;DHT22;13725;51.170;4.442;2023-01-16T14:39:57;6.90;99.90
25923;DHT22;13725;51.170;4.442;2023-01-16T14:42:51;6.90;99.90
25923;DHT22;13725;51.170;4.442;2023-01-16T14:45:37;7.00;99.90
25923;DHT22;13725;51.170;4.442;2023-01-16T14:57:17;7.00;99.90
25923;DHT22;13725;51.170;4.442;2023-01-16T15:00:11;6.90;99.90
25923;DHT22;13725;51.170;4.442;2023-01-16T15:03:02;7.00;99.90
25923;DHT22;13725;51.170;4.442;2023-01-16T15:05:40;7.00;99.90
25923;DHT22;13725;51.170;4.442;2023-01-16T15:08:28;7.00;99.90
25923;DHT22;13725;51.170;4.442;2023-01-16T15:10:56;7.00;99.90
25923;DHT22;13725;51.170;4.442;2023-01-16T15:13:45;7.00;99.90
25923;DHT22;13725;51.170;4.442;2023-01-16T15:16:30;7.00;99.90
25923;DHT22;13725;51.170;4.442;2023-01-16T15:19:20;6.90;99.90
25923;DHT22;13725;51.170;4.442;2023-01-16T15:22:47;6.90;99.90
25923;DHT22;13725;51.170;4.442;2023-01-16T15:30:42;6.90;99.90
25923;DHT22;13725;51.170;4.442;2023-01-16T15:33:22;6.90;99.90
25923;DHT22;13725;51.170;4.442;2023-01-16T15:38:39;6.90;99.90
25923;DHT22;13725;51.170;4.442;2023-01-16T15:41:10;6.90;99.90
25923;DHT22;13725;51.170;4.442;2023-01-16T15:43:37;6.90;99.90
25923;DHT22;13725;51.170;4.442;2023-01-16T15:51:40;6.30;99.90
25923;DHT22;13725;51.170;4.442;2023-01-16T15:54:12;6.20;99.90
25923;DHT22;13725;51.170;4.442;2023-01-16T15:56:42;6.10;99.90
25923;DHT22;13725;51.170;4.442;2023-01-16T15:59:31;6.00;99.90
25923;DHT22;13725;51.170;4.442;2023-01-16T16:02:24;6.00;99.90
25923;DHT22;13725;51.170;4.442;2023-01-16T16:04:59;5.90;99.90
25923;DHT22;13725;51.170;4.442;2023-01-16T16:07:25;5.80;99.90
25923;DHT22;13725;51.170;4.442;2023-01-16T16:09:58;5.60;99.90
25923;DHT22;13725;51.170;4.442;2023-01-16T16:12:25;5.50;99.90
25923;DHT22;13725;51.170;4.442;2023-01-16T16:15:20;5.30;99.90
25923;DHT22;13725;51.170;4.442;2023-01-16T16:18:23;5.20;99.90
25923;DHT22;13725;51.170;4.442;2023-01-16T16:20:50;5.10;99.90
25923;DHT22;13725;51.170;4.442;2023-01-16T16:25:52;5.00;99.90
25923;DHT22;13725;51.170;4.442;2023-01-16T16:33:22;4.90;99.90
25923;DHT22;13725;51.170;4.442;2023-01-16T16:35:59;4.90;99.90
25923;DHT22;13725;51.170;4.442;2023-01-16T16:38:46;4.90;99.90
25923;DHT22;13725;51.170;4.442;2023-01-16T16:43:46;4.80;99.90
25923;DHT22;13725;51.170;4.442;2023-01-16T16:46:30;4.80;99.90
25923;DHT22;13725;51.170;4.442;2023-01-16T16:51:35;4.90;99.90
25923;DHT22;13725;51.170;4.442;2023-01-16T16:54:12;4.90;99.90
25923;DHT22;13725;51.170;4.442;2023-01-16T16:56:44;4.90;99.90
25923;DHT22;13725;51.170;4.442;2023-01-16T16:59:23;4.90;99.90
25923;DHT22;13725;51.170;4.442;2023-01-16T17:01:54;5.00;99.90
25923;DHT22;13725;51.170;4.442;2023-01-16T17:04:21;5.00;99.90
25923;DHT22;13725;51.170;4.442;2023-01-16T17:06:48;5.00;99.90
25923;DHT22;13725;51.170;4.442;2023-01-16T17:09:17;4.90;99.90
25923;DHT22;13725;51.170;4.442;2023-01-16T17:11:44;5.10;99.90
25923;DHT22;13725;51.170;4.442;2023-01-16T17:14:10;4.90;99.90
25923;DHT22;13725;51.170;4.442;2023-01-16T17:16:36;4.90;99.90
25923;DHT22;13725;51.170;4.442;2023-01-16T17:19:17;4.90;99.90
25923;DHT22;13725;51.170;4.442;2023-01-16T17:21:44;5.00;99.90
25923;DHT22;13725;51.170;4.442;2023-01-16T17:24:14;5.00;99.90
25923;DHT22;13725;51.170;4.442;2023-01-16T17:26:40;5.00;99.90
25923;DHT22;13725;51.170;4.442;2023-01-16T17:29:07;4.90;99.90
25923;DHT22;13725;51.170;4.442;2023-01-16T17:31:33;4.90;99.90
25923;DHT22;13725;51.170;4.442;2023-01-16T17:34:00;4.90;99.90
25923;DHT22;13725;51.170;4.442;2023-01-16T17:36:25;4.90;99.90
25923;DHT22;13725;51.170;4.442;2023-01-16T17:38:53;4.90;99.90
25923;DHT22;13725;51.170;4.442;2023-01-16T17:41:22;5.10;99.90
25923;DHT22;13725;51.170;4.442;2023-01-16T17:43:54;5.10;99.90
25923;DHT22;13725;51.170;4.442;2023-01-16T17:46:52;4.90;99.90
25923;DHT22;13725;51.170;4.442;2023-01-16T17:49:17;5.00;99.90
25923;DHT22;13725;51.170;4.442;2023-01-16T17:51:44;4.90;99.90
25923;DHT22;13725;51.170;4.442;2023-01-16T17:54:10;4.90;99.90
25923;DHT22;13725;51.170;4.442;2023-01-16T17:56:55;5.00;99.90
25923;DHT22;13725;51.170;4.442;2023-01-16T17:59:22;4.90;99.90
25923;DHT22;13725;51.170;4.442;2023-01-16T18:01:52;5.00;99.90
25923;DHT22;13725;51.170;4.442;2023-01-16T18:04:19;5.10;99.90
25923;DHT22;13725;51.170;4.442;2023-01-16T18:06:44;5.10;99.90
25923;DHT22;13725;51.170;4.442;2023-01-16T18:09:12;5.10;99.90
25923;DHT22;13725;51.170;4.442;2023-01-16T18:11:42;5.10;99.90
25923;DHT22;13725;51.170;4.442;2023-01-16T18:14:27;5.20;99.90
25923;DHT22;13725;51.170;4.442;2023-01-16T18:17:14;5.20;99.90
25923;DHT22;13725;51.170;4.442;2023-01-16T18:19:50;5.20;99.90
25923;DHT22;13725;51.170;4.442;2023-01-16T18:22:18;5.10;99.90
25923;DHT22;13725;51.170;4.442;2023-01-16T18:24:44;5.20;99.90
25923;DHT22;13725;51.170;4.442;2023-01-16T18:27:12;5.10;99.90
25923;DHT22;13725;51.170;4.442;2023-01-16T18:29:39;5.10;99.90
25923;DHT22;13725;51.170;4.442;2023-01-16T18:32:06;5.10;99.90
25923;DHT22;13725;51.170;4.442;2023-01-16T18:37:24;5.00;99.90
25923;DHT22;13725;51.170;4.442;2023-01-16T18:39:51;4.90;99.90
25923;DHT22;13725;51.170;4.442;2023-01-16T18:42:35;4.90;99.90
25923;DHT22;13725;51.170;4.442;2023-01-16T18:45:19;4.80;99.90
25923;DHT22;13725;51.170;4.442;2023-01-16T18:48:20;4.70;99.90
25923;DHT22;13725;51.170;4.442;2023-01-16T18:51:15;4.70;99.90
25923;DHT22;13725;51.170;4.442;2023-01-16T18:54:35;4.70;99.90
25923;DHT22;13725;51.170;4.442;2023-01-16T18:57:14;4.70;99.90
25923;DHT22;13725;51.170;4.442;2023-01-16T18:59:58;4.60;99.90
25923;DHT22;13725;51.170;4.442;2023-01-16T19:03:00;4.70;99.90
25923;DHT22;13725;51.170;4.442;2023-01-16T19:05:25;4.70;99.90
25923;DHT22;13725;51.170;4.442;2023-01-16T19:07:55;4.80;99.90
25923;DHT22;13725;51.170;4.442;2023-01-16T19:10:24;4.70;99.90
25923;DHT22;13725;51.170;4.442;2023-01-16T19:12:51;4.70;99.90
25923;DHT22;13725;51.170;4.442;2023-01-16T19:15:18;4.70;99.90